Impacts TAF Board INFO
FOR SITUATIONAL AWARENESS. NOT TO BE USED FOR FLIGHT PLANNING PURPOSES.
IDs:

KPIT - Pittsburgh Intl, PA, US

Issued at 2055 UTC 25 Feb 2018
Updated at 2150 UTC 25 Feb 2018
Potential Impact None Slight Moderate High
Time<<26/22Z 26/23Z 27/00Z 27/01Z 27/02Z 27/03Z 27/04Z 27/05Z 27/06Z 27/07Z 27/08Z 27/09Z 27/10Z
Type PRVL PRVL
VIS >6 >6
CIG -- --
Cover SCT SCT
FltCat VFR VFR
WX -- --
WDir 270 270
WSpd 4 4
WGst -- --

Raw TAF
KPIT 252055Z 2521/2624 25010G20KT P6SM OVC250
  FM252300 25009KT P6SM BKN250
  FM260900 27004KT P6SM SCT250


METAR Board
Radar Display
Forecast Discussion

FOR SITUATIONAL AWARENESS. NOT TO BE USED FOR FLIGHT PLANNING PURPOSES.